LFBP/PUF METAR and TAF weather

Enter ICAO airport designator
Station Type Date Time Source
LFBP METAR 2022/08/16 18:30 UTC NOAA

LFBP 161830Z AUTO 23006KT 9999 FEW036/// BKN043/// ///CB 23/17 Q1009 TEMPO VRB25G35KT 2000 TSRAGR


Station Type Date Time Source
LFBP Decoded METAR 2022/08/16 18:30 UTC NOAA

Pau, France (LFBP) 43-23N 000-25W 185M
Aug 16, 2022 - 02:30 PM EDT / 2022.08.16 1830 UTC
Wind: from the SW (230 degrees) at 7 MPH (6 KT):0
Visibility: greater than 7 mile(s):0
Sky conditions: mostly cloudy
Weather: Cumulonimbus clouds observed
Temperature: 73 F (23 C)
Dew Point: 62 F (17 C)
Relative Humidity: 68%
Pressure (altimeter): 29.80 in. Hg (1009 hPa)
ob: LFBP 161830Z AUTO 23006KT 9999 FEW036/// BKN043/// ///CB 23/17 Q1009 TEMPO VRB25G35KT 2000 TSRAGR
cycle: 18

Station Type Date Time Source
LFBP TAF 2022/08/16 18:42 UTC NOAA

TAF LFBP 161700Z 1618/1718 30008KT 9999 SCT045 FEW070CB BKN130
TEMPO 1618/1622 32015G25KT TSRA PROB40
TEMPO 1619/1622 VRB20G30KT PROB30
TEMPO 1619/1621 VRB25G35KT 2000 TSRAGR
BECMG 1622/1624 BKN040
BECMG 1710/1712 SCT030TCU SCT050
TEMPO 1714/1717 BKN030 FEW050CB

Example: see airport list